createdAt,value
2022-12-25T00:00:37.663Z,10.30
2022-12-25T00:03:40.113Z,10.30
2022-12-25T00:06:42.242Z,10.30
2022-12-25T00:09:44.049Z,10.30
2022-12-25T00:12:45.936Z,10.30
2022-12-25T00:15:47.791Z,10.40
2022-12-25T00:18:53.149Z,10.40
2022-12-25T00:21:55.179Z,10.40
2022-12-25T00:25:00.331Z,10.40
2022-12-25T00:28:02.171Z,10.40
2022-12-25T00:31:12.557Z,10.40
2022-12-25T00:34:14.472Z,10.40
2022-12-25T00:37:16.351Z,10.30
2022-12-25T00:40:18.227Z,10.30
2022-12-25T00:43:23.831Z,10.40
2022-12-25T00:46:25.659Z,10.30
2022-12-25T00:49:27.774Z,10.40
2022-12-25T00:52:29.574Z,10.40
2022-12-25T00:55:31.654Z,10.40
2022-12-25T00:58:35.285Z,10.40
2022-12-25T01:01:37.987Z,10.40
2022-12-25T01:04:39.882Z,10.40
2022-12-25T01:07:41.705Z,10.40
2022-12-25T01:10:43.711Z,10.50
2022-12-25T01:13:45.501Z,10.50
2022-12-25T01:16:50.035Z,10.40
2022-12-25T01:19:56.773Z,10.40
2022-12-25T01:23:04.531Z,10.40
2022-12-25T01:26:07.745Z,10.40
2022-12-25T01:29:09.487Z,10.40
2022-12-25T01:32:11.531Z,10.40
2022-12-25T01:35:13.316Z,10.40
2022-12-25T01:38:15.314Z,10.30
2022-12-25T01:41:20.191Z,10.30
2022-12-25T01:44:37.122Z,10.30
2022-12-25T01:47:39.072Z,10.30
2022-12-25T01:50:45.994Z,10.20
2022-12-25T01:53:47.772Z,10.10
2022-12-25T01:56:51.753Z,10.10
2022-12-25T01:59:55.123Z,10.10
2022-12-25T02:02:57.696Z,10.10
2022-12-25T02:06:01.196Z,10.10
2022-12-25T02:09:04.482Z,10.10
2022-12-25T02:12:07.801Z,10.00
2022-12-25T02:15:16.819Z,10.00
2022-12-25T02:18:32.094Z,9.90
2022-12-25T02:21:44.887Z,9.90
2022-12-25T02:24:53.240Z,9.90
2022-12-25T02:28:03.855Z,9.90
2022-12-25T02:31:20.845Z,9.90
2022-12-25T02:34:34.510Z,10.00
2022-12-25T02:37:39.688Z,10.10
2022-12-25T02:40:44.872Z,10.00
2022-12-25T02:44:05.713Z,10.10
2022-12-25T02:47:28.471Z,10.10
2022-12-25T02:50:48.709Z,10.10
2022-12-25T02:54:13.311Z,10.10
2022-12-25T02:57:37.003Z,10.10
2022-12-25T03:01:01.916Z,10.00
2022-12-25T03:04:27.146Z,10.00
2022-12-25T03:07:30.842Z,10.00
2022-12-25T03:10:53.645Z,10.00
2022-12-25T03:14:20.240Z,10.00
2022-12-25T03:17:22.095Z,10.00
2022-12-25T03:20:42.527Z,10.00
2022-12-25T03:24:11.132Z,9.90
2022-12-25T03:27:12.976Z,9.90
2022-12-25T03:30:33.311Z,9.90
2022-12-25T03:34:01.038Z,10.00
2022-12-25T03:37:44.811Z,9.90
2022-12-25T03:41:24.160Z,10.00
2022-12-25T03:44:50.914Z,10.00
2022-12-25T03:48:12.948Z,10.00
2022-12-25T03:51:37.134Z,10.00
2022-12-25T03:54:59.946Z,10.00
2022-12-25T03:58:20.289Z,10.00
2022-12-25T04:01:41.129Z,10.00
2022-12-25T04:05:01.549Z,10.00
2022-12-25T04:08:21.983Z,10.00
2022-12-25T04:11:42.085Z,10.10
2022-12-25T04:15:02.211Z,10.10
2022-12-25T04:18:22.524Z,10.10
2022-12-25T04:21:43.460Z,10.10
2022-12-25T04:25:03.830Z,10.00
2022-12-25T04:28:24.125Z,10.00
2022-12-25T04:31:44.254Z,10.10
2022-12-25T04:35:04.952Z,10.00
2022-12-25T04:38:06.902Z,10.10
2022-12-25T04:41:11.170Z,10.00
2022-12-25T04:44:12.977Z,10.00
2022-12-25T04:47:14.889Z,10.00
2022-12-25T04:50:16.702Z,10.10
2022-12-25T04:53:19.467Z,10.10
2022-12-25T04:56:21.587Z,10.10
2022-12-25T04:59:23.539Z,10.00
2022-12-25T05:02:25.560Z,10.00
2022-12-25T05:05:27.651Z,10.00
2022-12-25T05:08:31.454Z,10.00
2022-12-25T05:11:33.546Z,10.00
2022-12-25T05:14:35.322Z,10.00
2022-12-25T05:17:37.706Z,10.00
2022-12-25T05:20:40.402Z,10.00
2022-12-25T05:23:51.102Z,10.00
2022-12-25T05:26:52.840Z,10.00
2022-12-25T05:29:54.688Z,10.00
2022-12-25T05:32:56.659Z,9.90
2022-12-25T05:35:58.717Z,10.00
2022-12-25T05:39:00.437Z,10.00
2022-12-25T05:42:02.183Z,10.00
2022-12-25T05:45:04.308Z,10.00
2022-12-25T05:48:06.536Z,10.00
2022-12-25T05:51:13.936Z,10.00
2022-12-25T05:54:16.844Z,9.90
2022-12-25T05:57:18.596Z,9.90
2022-12-25T06:00:20.911Z,9.80
2022-12-25T06:03:23.805Z,9.90
2022-12-25T06:06:26.168Z,9.80
2022-12-25T06:09:28.011Z,9.80
2022-12-25T06:12:29.816Z,9.80
2022-12-25T06:15:31.681Z,9.80
2022-12-25T06:18:38.042Z,9.80
2022-12-25T06:21:39.807Z,9.80
2022-12-25T06:24:41.597Z,9.80
2022-12-25T06:27:43.385Z,9.80
2022-12-25T06:30:45.399Z,9.80
2022-12-25T06:33:47.409Z,9.80
2022-12-25T06:36:49.276Z,9.80
2022-12-25T06:39:51.012Z,9.80
2022-12-25T06:42:53.262Z,9.90
2022-12-25T06:45:55.551Z,9.90
2022-12-25T06:48:58.857Z,9.90
2022-12-25T06:52:00.752Z,10.00
2022-12-25T06:55:02.856Z,10.00
2022-12-25T06:58:04.709Z,10.00
2022-12-25T07:01:15.390Z,10.00
2022-12-25T07:04:22.892Z,10.00
2022-12-25T07:07:24.897Z,10.00
2022-12-25T07:10:27.127Z,10.00
2022-12-25T07:13:28.995Z,10.00
2022-12-25T07:16:30.800Z,10.10
2022-12-25T07:19:32.736Z,10.10
2022-12-25T07:22:34.764Z,10.10
2022-12-25T07:25:37.650Z,10.10
2022-12-25T07:28:39.816Z,10.10
2022-12-25T07:31:41.610Z,10.10
2022-12-25T07:34:43.349Z,10.00
2022-12-25T07:37:45.436Z,10.10
2022-12-25T07:40:47.206Z,10.00
2022-12-25T07:43:53.915Z,10.00
2022-12-25T07:46:55.831Z,10.00
2022-12-25T07:49:57.759Z,10.10
2022-12-25T07:52:59.507Z,10.10
2022-12-25T07:56:04.345Z,10.10
2022-12-25T07:59:06.085Z,10.20
2022-12-25T08:02:09.565Z,10.20
2022-12-25T08:05:11.505Z,10.20
2022-12-25T08:08:13.565Z,10.20
2022-12-25T08:11:15.811Z,10.20
2022-12-25T08:14:22.684Z,10.20
2022-12-25T08:17:24.409Z,10.10
2022-12-25T08:20:26.237Z,10.10
2022-12-25T08:23:28.222Z,10.10
2022-12-25T08:26:30.267Z,10.00
2022-12-25T08:29:33.209Z,10.00
2022-12-25T08:32:35.404Z,10.10
2022-12-25T08:35:37.672Z,10.10
2022-12-25T08:38:40.040Z,10.00
2022-12-25T08:41:41.887Z,10.00
2022-12-25T08:44:43.757Z,10.00
2022-12-25T08:47:45.516Z,10.00
2022-12-25T08:50:49.465Z,10.00
2022-12-25T08:53:53.312Z,10.00
2022-12-25T08:57:02.154Z,10.00
2022-12-25T09:00:04.811Z,10.00
2022-12-25T09:03:07.003Z,9.90
2022-12-25T09:06:12.003Z,9.90
2022-12-25T09:09:13.804Z,9.90
2022-12-25T09:12:16.463Z,9.90
2022-12-25T09:15:18.431Z,9.90
2022-12-25T09:18:20.172Z,9.90
2022-12-25T09:21:21.977Z,10.00
2022-12-25T09:24:24.089Z,10.00
2022-12-25T09:27:26.069Z,10.00
2022-12-25T09:30:27.952Z,10.00
2022-12-25T09:33:30.094Z,9.90
2022-12-25T09:36:31.921Z,10.00
2022-12-25T09:39:33.911Z,10.00
2022-12-25T09:42:35.702Z,10.00
2022-12-25T09:45:39.239Z,10.00
2022-12-25T09:48:45.509Z,9.90
2022-12-25T09:51:53.320Z,9.90
2022-12-25T09:55:02.967Z,9.90
2022-12-25T09:58:12.476Z,10.00
2022-12-25T10:01:41.405Z,9.90
2022-12-25T10:05:14.837Z,10.00
2022-12-25T10:08:28.447Z,10.10
2022-12-25T10:11:33.466Z,10.10
2022-12-25T10:14:45.963Z,10.10
2022-12-25T10:18:24.956Z,10.10
2022-12-25T10:21:28.091Z,10.20
2022-12-25T10:24:51.973Z,10.20
2022-12-25T10:28:04.648Z,10.10
2022-12-25T10:31:21.886Z,10.00
2022-12-25T10:34:23.842Z,10.10
2022-12-25T10:37:28.265Z,10.00
2022-12-25T10:40:45.380Z,10.10
2022-12-25T10:43:51.513Z,10.10
2022-12-25T10:47:01.914Z,10.20
2022-12-25T10:50:20.615Z,10.10
2022-12-25T10:53:25.540Z,10.20
2022-12-25T10:56:27.433Z,10.10
2022-12-25T10:59:34.700Z,10.10
2022-12-25T11:02:40.719Z,10.20
2022-12-25T11:05:43.039Z,10.10
2022-12-25T11:08:55.138Z,10.10
2022-12-25T11:11:57.298Z,10.10
2022-12-25T11:15:03.097Z,10.20
2022-12-25T11:18:22.417Z,10.20
2022-12-25T11:21:30.485Z,10.10
2022-12-25T11:24:33.925Z,10.10
2022-12-25T11:27:35.648Z,10.10
2022-12-25T11:30:38.173Z,10.10
2022-12-25T11:33:51.811Z,10.20
2022-12-25T11:36:53.589Z,10.10
2022-12-25T11:39:55.428Z,10.10
2022-12-25T11:43:18.301Z,10.10
2022-12-25T11:46:35.990Z,10.10
2022-12-25T11:49:50.037Z,10.10
2022-12-25T11:52:53.701Z,10.10
2022-12-25T11:56:17.450Z,10.20
2022-12-25T11:59:26.110Z,10.20
2022-12-25T12:02:32.196Z,10.20
2022-12-25T12:05:48.009Z,10.10
2022-12-25T12:08:57.602Z,10.10
2022-12-25T12:12:31.510Z,10.10
2022-12-25T12:15:43.925Z,10.10
2022-12-25T12:18:50.380Z,10.20
2022-12-25T12:21:55.581Z,10.20
2022-12-25T12:25:05.124Z,10.20
2022-12-25T12:28:14.458Z,10.20
2022-12-25T12:31:17.068Z,10.30
2022-12-25T12:34:33.466Z,10.30
2022-12-25T12:37:40.559Z,10.30
2022-12-25T12:40:52.115Z,10.30
2022-12-25T12:44:00.639Z,10.30
2022-12-25T12:47:02.763Z,10.30
2022-12-25T12:50:05.818Z,10.30
2022-12-25T12:53:40.666Z,10.30
2022-12-25T12:56:45.225Z,10.30
2022-12-25T12:59:47.930Z,10.20
2022-12-25T13:03:07.787Z,10.20
2022-12-25T13:06:25.080Z,10.20
2022-12-25T13:09:35.854Z,10.30
2022-12-25T13:12:38.221Z,10.30
2022-12-25T13:15:40.034Z,10.40
2022-12-25T13:18:42.304Z,10.50
2022-12-25T13:22:01.785Z,10.70
2022-12-25T13:25:12.435Z,10.80
2022-12-25T13:28:14.936Z,10.90
2022-12-25T13:31:30.788Z,10.90
2022-12-25T13:34:32.797Z,10.90
2022-12-25T13:37:35.631Z,10.90
2022-12-25T13:41:03.630Z,11.00
2022-12-25T13:44:46.886Z,11.00
2022-12-25T13:47:56.782Z,11.10
2022-12-25T13:51:02.130Z,11.10
2022-12-25T13:54:05.634Z,11.20
2022-12-25T13:57:13.309Z,11.20
2022-12-25T14:00:22.758Z,11.20
2022-12-25T14:03:39.490Z,11.30
2022-12-25T14:06:41.375Z,11.20
2022-12-25T14:09:54.604Z,11.30
2022-12-25T14:13:04.000Z,11.30
2022-12-25T14:16:07.061Z,11.30
2022-12-25T14:19:25.229Z,11.30
2022-12-25T14:22:28.406Z,11.40
2022-12-25T14:25:45.816Z,11.40
2022-12-25T14:29:16.761Z,11.40
2022-12-25T14:32:30.200Z,11.50
2022-12-25T14:35:31.979Z,11.50
2022-12-25T14:38:40.927Z,11.50
2022-12-25T14:41:52.267Z,11.50
2022-12-25T14:45:30.733Z,11.50
2022-12-25T14:48:33.694Z,11.50
2022-12-25T14:51:38.895Z,11.60
2022-12-25T14:54:46.627Z,11.60
2022-12-25T14:57:56.420Z,11.60
2022-12-25T15:01:18.879Z,11.60
2022-12-25T15:04:32.925Z,11.60
2022-12-25T15:07:35.086Z,11.60
2022-12-25T15:14:00.818Z,11.60
2022-12-25T15:17:12.351Z,11.60
2022-12-25T15:20:14.351Z,11.60
2022-12-25T15:23:20.361Z,11.70
2022-12-25T15:26:23.305Z,11.70
2022-12-25T15:30:07.395Z,11.70
2022-12-25T15:32:57.020Z,11.70
2022-12-25T15:35:58.790Z,11.70
2022-12-25T15:39:01.055Z,11.70
2022-12-25T15:42:11.954Z,11.70
2022-12-25T15:45:26.523Z,11.70
2022-12-25T15:48:28.325Z,11.70
2022-12-25T15:51:42.944Z,11.70
2022-12-25T15:54:47.060Z,11.70
2022-12-25T15:57:54.550Z,11.80
2022-12-25T16:00:56.432Z,11.80
2022-12-25T16:03:58.329Z,11.80
2022-12-25T16:07:00.485Z,11.90
2022-12-25T16:10:07.927Z,11.90
2022-12-25T16:13:11.299Z,11.90
2022-12-25T16:16:22.768Z,11.90
2022-12-25T16:19:26.901Z,11.90
2022-12-25T16:22:30.701Z,11.90
2022-12-25T16:25:35.104Z,11.90
2022-12-25T16:28:36.997Z,11.90
2022-12-25T16:31:39.947Z,11.90
2022-12-25T16:34:59.585Z,11.80
2022-12-25T16:38:11.734Z,11.80
2022-12-25T16:44:35.815Z,11.80
2022-12-25T16:47:37.652Z,11.80
2022-12-25T16:50:43.603Z,11.80
2022-12-25T16:53:46.148Z,11.80
2022-12-25T16:56:48.006Z,11.80
2022-12-25T16:59:50.148Z,11.70
2022-12-25T17:02:56.072Z,11.70
2022-12-25T17:05:58.061Z,11.80
2022-12-25T17:09:02.435Z,11.80
2022-12-25T17:12:06.753Z,11.80
2022-12-25T17:15:09.085Z,11.80
2022-12-25T17:18:11.182Z,11.80
2022-12-25T17:21:14.660Z,11.80
2022-12-25T17:24:16.926Z,11.80
2022-12-25T17:27:18.925Z,11.80
2022-12-25T17:30:20.704Z,11.80
2022-12-25T17:33:22.531Z,11.80
2022-12-25T17:36:25.133Z,11.80
2022-12-25T17:39:27.458Z,11.80
2022-12-25T17:42:31.836Z,11.80
2022-12-25T17:45:37.090Z,11.80
2022-12-25T17:48:39.787Z,11.80
2022-12-25T17:51:41.823Z,11.80
2022-12-25T17:54:44.139Z,11.80
2022-12-25T17:57:45.944Z,11.80
2022-12-25T18:00:47.828Z,11.80
2022-12-25T18:03:50.293Z,11.90
2022-12-25T18:06:52.341Z,11.90
2022-12-25T18:09:54.151Z,11.90
2022-12-25T18:12:55.965Z,11.90
2022-12-25T18:15:58.061Z,11.90
2022-12-25T18:19:01.253Z,11.90
2022-12-25T18:22:03.094Z,11.90
2022-12-25T18:25:05.433Z,11.90
2022-12-25T18:28:07.502Z,11.90
2022-12-25T18:31:11.962Z,11.90
2022-12-25T18:34:14.183Z,11.90
2022-12-25T18:37:16.096Z,11.90
2022-12-25T18:40:18.010Z,11.90
2022-12-25T18:43:20.795Z,11.80
2022-12-25T18:46:43.117Z,11.80
2022-12-25T18:49:45.160Z,11.80
2022-12-25T18:52:51.814Z,11.90
2022-12-25T18:56:02.965Z,11.90
2022-12-25T18:59:05.036Z,11.90
2022-12-25T19:02:07.036Z,11.90
2022-12-25T19:05:09.156Z,11.80
2022-12-25T19:08:16.098Z,11.90
2022-12-25T19:11:20.184Z,11.90
2022-12-25T19:14:22.086Z,11.80
2022-12-25T19:17:31.213Z,11.90
2022-12-25T19:20:33.651Z,11.90
2022-12-25T19:23:37.555Z,11.90
2022-12-25T19:26:39.726Z,11.90
2022-12-25T19:29:41.598Z,11.90
2022-12-25T19:32:43.471Z,11.90
2022-12-25T19:35:50.247Z,11.90
2022-12-25T19:38:52.339Z,11.80
2022-12-25T19:41:54.160Z,11.80
2022-12-25T19:44:56.019Z,11.80
2022-12-25T19:47:58.409Z,11.80
2022-12-25T19:51:00.666Z,11.80
2022-12-25T19:54:03.516Z,11.90
2022-12-25T19:57:05.540Z,11.80
2022-12-25T20:00:08.238Z,11.80
2022-12-25T20:03:10.313Z,11.80
2022-12-25T20:06:24.897Z,11.90
2022-12-25T20:09:26.786Z,11.80
2022-12-25T20:12:28.583Z,11.90
2022-12-25T20:15:30.629Z,11.80
2022-12-25T20:18:32.701Z,11.80
2022-12-25T20:21:34.849Z,11.80
2022-12-25T20:24:36.930Z,11.80
2022-12-25T20:27:38.920Z,11.90
2022-12-25T20:30:40.879Z,11.80
2022-12-25T20:33:42.778Z,11.80
2022-12-25T20:36:47.361Z,11.80
2022-12-25T20:39:49.143Z,11.90
2022-12-25T20:42:50.964Z,11.90
2022-12-25T20:45:53.973Z,11.90
2022-12-25T20:48:56.275Z,11.90
2022-12-25T20:52:05.181Z,11.90
2022-12-25T20:55:14.239Z,12.00
2022-12-25T20:58:17.352Z,11.90
2022-12-25T21:01:19.357Z,11.90
2022-12-25T21:04:21.163Z,12.00
2022-12-25T21:07:23.084Z,12.00
2022-12-25T21:10:25.043Z,11.90
2022-12-25T21:13:29.783Z,12.00
2022-12-25T21:16:32.801Z,12.00
2022-12-25T21:19:35.043Z,12.00
2022-12-25T21:22:36.984Z,12.00
2022-12-25T21:25:38.816Z,12.00
2022-12-25T21:28:40.661Z,11.90
2022-12-25T21:32:00.929Z,11.90
2022-12-25T21:35:06.029Z,11.90
2022-12-25T21:38:07.923Z,12.00
2022-12-25T21:41:18.918Z,12.00
2022-12-25T21:44:20.753Z,12.00
2022-12-25T21:47:23.054Z,12.00
2022-12-25T21:50:44.629Z,11.90
2022-12-25T21:53:46.875Z,12.00
2022-12-25T21:56:49.679Z,11.90
2022-12-25T21:59:51.695Z,11.90
2022-12-25T22:02:53.696Z,11.90
2022-12-25T22:06:21.350Z,11.90
2022-12-25T22:09:23.916Z,11.90
2022-12-25T22:12:44.184Z,11.90
2022-12-25T22:16:04.674Z,11.90
2022-12-25T22:19:24.898Z,12.00
2022-12-25T22:22:29.128Z,12.00
2022-12-25T22:25:30.927Z,11.90
2022-12-25T22:28:32.776Z,12.00
2022-12-25T22:31:36.311Z,11.90
2022-12-25T22:34:40.558Z,11.90
2022-12-25T22:37:43.399Z,11.90
2022-12-25T22:40:45.257Z,11.90
2022-12-25T22:44:16.343Z,11.80
2022-12-25T22:47:11.273Z,11.80
2022-12-25T22:50:17.595Z,11.80
2022-12-25T22:53:20.259Z,11.80
2022-12-25T22:56:22.125Z,11.80
2022-12-25T22:59:24.331Z,11.80
2022-12-25T23:02:26.712Z,11.80
2022-12-25T23:05:28.881Z,11.80
2022-12-25T23:08:30.699Z,11.80
2022-12-25T23:11:32.853Z,11.80
2022-12-25T23:14:41.066Z,11.80
2022-12-25T23:18:01.265Z,11.80
2022-12-25T23:21:22.338Z,11.80
2022-12-25T23:24:42.914Z,11.80
2022-12-25T23:27:46.015Z,11.90
2022-12-25T23:30:47.888Z,11.90
2022-12-25T23:33:49.760Z,11.90
2022-12-25T23:36:51.716Z,11.90
2022-12-25T23:39:53.661Z,11.90
2022-12-25T23:42:55.773Z,11.80
2022-12-25T23:45:57.942Z,11.80
2022-12-25T23:48:59.802Z,11.80
2022-12-25T23:52:01.651Z,11.80
2022-12-25T23:55:03.705Z,11.80
2022-12-25T23:58:05.616Z,11.80
